Time;durP1;ratioP1;P1;durP2;ratioP2;P2;SDS_P1;SDS_P2;PMS_P1;PMS_P2;Temp;Humidity;BMP_temperature;BMP_pressure;BME280_temperature;BME280_humidity;BME280_pressure;Samples;Min_cycle;Max_cycle;Signal;HPM_P1;HPM_P2
2021/03/16 00:01:28;;;;;;;7.23;3.60;;;4.40;99.90;;;;;;5094889;28;20328;-63
2021/03/16 00:03:56;;;;;;;8.67;4.77;;;4.30;99.90;;;;;;5094133;28;20720;-63
2021/03/16 00:06:22;;;;;;;5.97;3.63;;;4.40;99.90;;;;;;5094487;28;20298;-63
2021/03/16 00:08:50;;;;;;;5.87;3.73;;;4.40;99.90;;;;;;5094668;28;20285;-63
2021/03/16 00:11:20;;;;;;;5.93;3.17;;;4.40;99.90;;;;;;5094620;28;20213;-62
2021/03/16 00:13:47;;;;;;;5.90;3.33;;;4.40;99.90;;;;;;5094260;28;20278;-64
2021/03/16 00:16:14;;;;;;;8.33;3.73;;;4.40;99.90;;;;;;5094479;28;20289;-62
2021/03/16 00:18:41;;;;;;;8.57;3.50;;;4.40;99.90;;;;;;5094233;28;20233;-63
2021/03/16 00:21:08;;;;;;;10.67;3.47;;;4.40;99.90;;;;;;5094153;28;20595;-62
2021/03/16 00:23:35;;;;;;;8.40;3.93;;;4.50;99.90;;;;;;5094033;28;20674;-62
2021/03/16 00:26:03;;;;;;;9.00;3.73;;;4.50;99.90;;;;;;5094048;28;20254;-63
2021/03/16 00:28:30;;;;;;;8.67;3.40;;;4.50;99.90;;;;;;5094073;28;20250;-63
2021/03/16 00:30:57;;;;;;;9.77;3.20;;;4.50;99.90;;;;;;5094250;28;20264;-62
2021/03/16 00:33:24;;;;;;;5.70;3.10;;;4.50;99.90;;;;;;5093962;28;20217;-62
2021/03/16 00:35:50;;;;;;;6.03;3.33;;;4.60;99.90;;;;;;5093439;28;20673;-63
2021/03/16 00:38:18;;;;;;;7.17;3.57;;;4.60;99.90;;;;;;5093704;28;20241;-62
2021/03/16 00:40:44;;;;;;;6.13;3.53;;;4.50;99.90;;;;;;5093998;28;20229;-61
2021/03/16 00:43:13;;;;;;;7.50;3.20;;;4.50;99.90;;;;;;5093869;28;20295;-61
2021/03/16 00:45:42;;;;;;;6.17;3.30;;;4.50;99.90;;;;;;5093653;28;20205;-63
2021/03/16 00:48:15;;;;;;;6.90;3.40;;;4.50;99.90;;;;;;5093487;28;20292;-63
2021/03/16 00:50:43;;;;;;;7.10;3.87;;;4.50;99.90;;;;;;5093340;28;20212;-62
2021/03/16 00:53:10;;;;;;;6.17;3.23;;;4.60;99.90;;;;;;5093212;28;20324;-63
2021/03/16 00:55:37;;;;;;;5.70;3.47;;;4.50;99.90;;;;;;5093844;28;20289;-63
2021/03/16 00:58:04;;;;;;;5.47;3.27;;;4.50;99.90;;;;;;5093255;28;20803;-62
2021/03/16 01:00:33;;;;;;;5.13;3.03;;;4.50;99.90;;;;;;5093786;28;20206;-61
2021/03/16 01:03:00;;;;;;;5.17;3.37;;;4.50;99.90;;;;;;5092843;28;20200;-63
2021/03/16 01:05:27;;;;;;;4.90;3.30;;;4.50;99.90;;;;;;5093073;28;20233;-63
2021/03/16 01:07:54;;;;;;;8.60;3.80;;;4.50;99.90;;;;;;5093592;28;20290;-62
2021/03/16 01:10:23;;;;;;;6.80;3.70;;;4.50;99.90;;;;;;5093531;28;20206;-63
2021/03/16 01:12:49;;;;;;;5.50;3.50;;;4.50;99.90;;;;;;5093249;28;20271;-62
2021/03/16 01:15:17;;;;;;;6.17;3.40;;;4.50;99.90;;;;;;5093442;28;20228;-62
2021/03/16 01:17:45;;;;;;;4.63;3.53;;;4.50;99.90;;;;;;5092994;28;20838;-62
2021/03/16 01:20:15;;;;;;;4.20;3.00;;;4.40;99.90;;;;;;5092784;28;20744;-63
2021/03/16 01:22:42;;;;;;;5.60;3.20;;;4.40;99.90;;;;;;5093291;28;20293;-63
2021/03/16 01:25:11;;;;;;;5.07;2.90;;;4.40;99.90;;;;;;5093102;28;20730;-63
2021/03/16 01:27:38;;;;;;;7.33;2.80;;;4.50;99.90;;;;;;5093158;28;20289;-62
2021/03/16 01:30:07;;;;;;;4.40;2.67;;;4.40;99.90;;;;;;5092797;28;20202;-62
2021/03/16 01:32:33;;;;;;;5.80;2.63;;;4.50;99.90;;;;;;5092771;28;20255;-62
2021/03/16 01:35:02;;;;;;;6.60;2.83;;;4.50;99.90;;;;;;5092757;28;20272;-63
2021/03/16 01:37:29;;;;;;;5.67;2.80;;;4.50;99.90;;;;;;5092698;28;20704;-63
2021/03/16 01:39:56;;;;;;;3.57;2.40;;;4.50;99.90;;;;;;5093190;28;20293;-62
2021/03/16 01:42:23;;;;;;;3.80;1.87;;;4.50;99.90;;;;;;5092996;28;20228;-62
2021/03/16 01:44:50;;;;;;;5.13;2.63;;;4.50;99.90;;;;;;5092951;28;20197;-62
2021/03/16 01:47:19;;;;;;;7.27;2.83;;;4.50;99.90;;;;;;5092555;28;20610;-63
2021/03/16 01:49:46;;;;;;;6.00;2.80;;;4.50;99.90;;;;;;5092683;28;20215;-62
2021/03/16 01:52:15;;;;;;;7.23;2.70;;;4.50;99.90;;;;;;5092722;28;20237;-63
2021/03/16 01:54:42;;;;;;;6.00;2.80;;;4.50;99.90;;;;;;5092938;28;20340;-63
2021/03/16 01:57:09;;;;;;;6.57;2.50;;;4.40;99.90;;;;;;5093240;28;20300;-65
2021/03/16 01:59:36;;;;;;;3.87;2.73;;;4.40;99.90;;;;;;5092721;28;20301;-64
2021/03/16 02:02:03;;;;;;;4.60;2.50;;;4.40;99.90;;;;;;5092498;28;20205;-62
2021/03/16 02:04:31;;;;;;;4.67;2.67;;;4.50;99.90;;;;;;5095561;28;20196;-62
2021/03/16 02:07:03;;;;;;;6.23;2.80;;;4.50;99.90;;;;;;5099438;28;20234;-62
2021/03/16 02:09:36;;;;;;;8.13;2.90;;;4.50;99.90;;;;;;5100241;28;20208;-63
2021/03/16 02:12:10;;;;;;;6.53;2.47;;;4.50;99.90;;;;;;5093013;28;20220;-63
2021/03/16 02:14:43;;;;;;;4.97;2.83;;;4.50;99.90;;;;;;5094436;28;20200;-62
2021/03/16 02:17:14;;;;;;;6.10;2.67;;;4.50;99.90;;;;;;5096907;28;20285;-63
2021/03/16 02:20:19;;;;;;;6.13;2.70;;;4.50;99.90;;;;;;5096632;28;20235;-63
2021/03/16 02:22:49;;;;;;;4.67;2.90;;;4.50;99.90;;;;;;5068292;28;20616;-62
2021/03/16 02:25:31;;;;;;;5.00;2.77;;;4.40;99.90;;;;;;5076086;28;20243;-62
2021/03/16 02:28:17;;;;;;;5.40;2.73;;;4.50;99.90;;;;;;5075645;28;20659;-63
2021/03/16 02:30:46;;;;;;;4.87;2.83;;;4.50;99.90;;;;;;5076054;28;20286;-61
2021/03/16 02:33:18;;;;;;;5.20;2.70;;;4.50;99.90;;;;;;5075822;28;20308;-63
2021/03/16 02:35:47;;;;;;;4.17;2.70;;;4.50;99.90;;;;;;5076354;28;20183;-61
2021/03/16 02:38:18;;;;;;;6.03;3.00;;;4.50;99.90;;;;;;5075849;28;20237;-63
2021/03/16 02:40:48;;;;;;;4.60;2.20;;;4.50;99.90;;;;;;5076182;28;20211;-62
2021/03/16 02:43:16;;;;;;;4.27;2.37;;;4.50;99.90;;;;;;5075758;28;20186;-61
2021/03/16 02:45:45;;;;;;;4.73;2.60;;;4.40;99.90;;;;;;5075979;28;20205;-62
2021/03/16 02:48:13;;;;;;;3.40;2.30;;;4.50;99.90;;;;;;5075520;28;20235;-62
2021/03/16 02:50:43;;;;;;;6.13;2.70;;;4.40;99.90;;;;;;5075924;28;20292;-62
2021/03/16 02:53:11;;;;;;;4.57;2.60;;;4.50;99.90;;;;;;5075373;28;20665;-62
2021/03/16 02:55:40;;;;;;;2.80;2.50;;;4.30;99.90;;;;;;5075399;28;20224;-63
2021/03/16 02:58:07;;;;;;;3.23;2.60;;;4.30;99.90;;;;;;5075288;28;20699;-62
2021/03/16 03:00:35;;;;;;;5.03;2.60;;;4.40;99.90;;;;;;5075449;28;20704;-62
2021/03/16 03:03:05;;;;;;;3.83;2.63;;;4.40;99.90;;;;;;5075089;28;20201;-63
2021/03/16 03:05:34;;;;;;;4.97;2.80;;;4.40;99.90;;;;;;5075508;28;20203;-63
2021/03/16 03:08:01;;;;;;;3.23;2.90;;;4.50;99.90;;;;;;5075338;28;20835;-62
2021/03/16 03:10:28;;;;;;;3.30;2.47;;;4.50;99.90;;;;;;5075535;28;20245;-63
2021/03/16 03:12:55;;;;;;;5.17;2.80;;;4.40;99.90;;;;;;5075403;28;20219;-61
2021/03/16 03:15:22;;;;;;;5.43;2.93;;;4.40;99.90;;;;;;5075195;28;20309;-63
2021/03/16 03:17:49;;;;;;;4.73;2.60;;;4.40;99.90;;;;;;5074853;28;20205;-62
2021/03/16 03:20:17;;;;;;;4.67;3.33;;;4.50;99.90;;;;;;5078612;28;20277;-62
2021/03/16 03:22:45;;;;;;;5.20;3.10;;;4.50;99.90;;;;;;5095550;28;20228;-63
2021/03/16 03:25:20;;;;;;;5.83;3.10;;;4.60;99.90;;;;;;5095051;28;20196;-62
2021/03/16 03:27:50;;;;;;;6.27;3.70;;;4.60;99.90;;;;;;5095365;28;20309;-62
2021/03/16 03:30:21;;;;;;;9.50;3.67;;;4.60;99.90;;;;;;5095455;28;20273;-63
2021/03/16 03:32:48;;;;;;;10.30;4.60;;;4.50;99.90;;;;;;5094636;28;20188;-63
2021/03/16 03:35:18;;;;;;;8.23;4.97;;;4.50;99.90;;;;;;5095001;28;20227;-62
2021/03/16 03:37:49;;;;;;;10.07;4.73;;;4.60;99.90;;;;;;5094943;28;20237;-64
2021/03/16 03:40:16;;;;;;;10.97;5.23;;;4.70;99.90;;;;;;5094961;28;20281;-62
2021/03/16 03:42:44;;;;;;;9.87;5.00;;;4.70;99.90;;;;;;5095145;28;20285;-62
2021/03/16 03:45:14;;;;;;;10.90;5.10;;;4.70;99.90;;;;;;5095086;28;20243;-62
2021/03/16 03:47:41;;;;;;;13.63;5.03;;;4.80;99.90;;;;;;5094612;28;20571;-62
2021/03/16 03:50:13;;;;;;;8.20;5.10;;;4.70;99.90;;;;;;5094635;28;20201;-62
2021/03/16 03:52:41;;;;;;;12.47;5.83;;;4.70;99.90;;;;;;5094496;28;20259;-62
2021/03/16 03:55:10;;;;;;;8.67;5.10;;;4.70;99.90;;;;;;5094285;28;20222;-63
2021/03/16 03:57:54;;;;;;;10.10;5.47;;;4.60;99.90;;;;;;5094900;28;20188;-62
2021/03/16 04:00:22;;;;;;;8.53;5.00;;;4.60;99.90;;;;;;5094846;28;20295;-63
2021/03/16 04:02:51;;;;;;;8.20;4.70;;;4.70;99.90;;;;;;5094055;28;20201;-62
2021/03/16 04:05:19;;;;;;;9.60;5.07;;;4.70;99.90;;;;;;5094834;28;20192;-63
2021/03/16 04:07:48;;;;;;;11.90;6.03;;;4.70;99.90;;;;;;5094575;28;20292;-62
2021/03/16 04:10:16;;;;;;;7.33;5.03;;;4.60;99.90;;;;;;5094662;28;20336;-63
2021/03/16 04:12:44;;;;;;;8.87;5.17;;;4.60;99.90;;;;;;5094719;28;20237;-63
2021/03/16 04:15:13;;;;;;;7.90;5.10;;;4.50;99.90;;;;;;5094495;28;20220;-62
2021/03/16 04:17:43;;;;;;;8.50;5.93;;;4.50;99.90;;;;;;5093904;28;20286;-63
2021/03/16 04:20:12;;;;;;;10.23;4.73;;;4.50;99.90;;;;;;5094362;28;20667;-63
2021/03/16 04:22:39;;;;;;;7.63;4.97;;;4.50;99.90;;;;;;5094383;28;20276;-62
2021/03/16 04:25:08;;;;;;;9.13;4.60;;;4.50;99.90;;;;;;5094491;28;20299;-63
2021/03/16 04:27:35;;;;;;;10.63;5.00;;;4.50;99.90;;;;;;5094433;28;20593;-63
2021/03/16 04:30:03;;;;;;;9.20;4.67;;;4.50;99.90;;;;;;5093907;28;20241;-63
2021/03/16 04:32:30;;;;;;;8.47;5.57;;;4.50;99.90;;;;;;5093778;28;20206;-62
2021/03/16 04:34:57;;;;;;;11.63;4.80;;;4.40;99.90;;;;;;5093823;28;20222;-62
2021/03/16 04:37:24;;;;;;;10.73;5.37;;;4.50;99.90;;;;;;5093338;28;20234;-62
2021/03/16 04:39:51;;;;;;;6.53;4.57;;;4.50;99.90;;;;;;5093920;28;20304;-63
2021/03/16 04:42:18;;;;;;;8.97;4.43;;;4.50;99.90;;;;;;5093965;28;20227;-62
2021/03/16 04:44:45;;;;;;;11.97;5.63;;;4.50;99.90;;;;;;5093867;28;20232;-62
2021/03/16 04:47:12;;;;;;;10.70;5.03;;;4.40;99.90;;;;;;5093544;28;20205;-62
2021/03/16 04:49:39;;;;;;;9.13;4.80;;;4.40;99.90;;;;;;5093930;28;20203;-62
2021/03/16 04:52:06;;;;;;;7.90;5.40;;;4.30;99.90;;;;;;5093640;28;20771;-63
2021/03/16 04:54:33;;;;;;;10.47;4.90;;;4.30;99.90;;;;;;5093667;28;20292;-62
2021/03/16 04:57:00;;;;;;;12.57;5.60;;;4.30;99.90;;;;;;5093750;28;20246;-62
2021/03/16 04:59:27;;;;;;;7.77;5.10;;;4.30;99.90;;;;;;5093336;28;20246;-63
2021/03/16 05:01:54;;;;;;;8.93;4.90;;;4.30;99.90;;;;;;5093091;28;20720;-63
2021/03/16 05:04:21;;;;;;;10.10;4.87;;;4.30;99.90;;;;;;5093511;28;20236;-64
2021/03/16 05:06:48;;;;;;;9.83;5.30;;;4.30;99.90;;;;;;5093661;28;20204;-63
2021/03/16 05:09:15;;;;;;;8.37;4.50;;;4.20;99.90;;;;;;5093630;28;20212;-62
2021/03/16 05:11:42;;;;;;;7.70;4.90;;;4.20;99.90;;;;;;5093410;28;20665;-62
2021/03/16 05:14:09;;;;;;;12.03;5.03;;;4.20;99.90;;;;;;5093071;28;20576;-62
2021/03/16 05:16:36;;;;;;;9.87;5.43;;;4.20;99.90;;;;;;5092956;28;20806;-62
2021/03/16 05:19:04;;;;;;;10.57;5.10;;;4.30;99.90;;;;;;5093151;28;20206;-63
2021/03/16 05:21:31;;;;;;;10.50;4.87;;;4.30;99.90;;;;;;5093198;28;20236;-64
2021/03/16 05:23:58;;;;;;;11.03;4.90;;;4.20;99.90;;;;;;5093244;28;20205;-62
2021/03/16 05:26:25;;;;;;;12.50;5.63;;;4.30;99.90;;;;;;5093251;28;20554;-62
2021/03/16 05:29:02;;;;;;;9.07;4.40;;;4.30;99.90;;;;;;5093381;28;20287;-62
2021/03/16 05:31:29;;;;;;;7.57;4.80;;;4.20;99.90;;;;;;5092514;28;20268;-62
2021/03/16 05:33:57;;;;;;;9.20;4.70;;;4.20;99.90;;;;;;5092961;28;20198;-62
2021/03/16 05:36:24;;;;;;;12.07;5.70;;;4.20;99.90;;;;;;5093098;28;20237;-63
2021/03/16 05:38:51;;;;;;;10.00;5.33;;;4.20;99.90;;;;;;5093165;28;20200;-62
2021/03/16 05:41:19;;;;;;;9.77;5.23;;;4.20;99.90;;;;;;5093102;28;20200;-62
2021/03/16 05:43:47;;;;;;;7.77;4.80;;;4.10;99.90;;;;;;5092640;28;20675;-64
2021/03/16 05:46:15;;;;;;;9.73;5.47;;;4.20;99.90;;;;;;5092590;28;20266;-62
2021/03/16 05:48:49;;;;;;;10.17;5.00;;;4.20;99.90;;;;;;5092588;28;20293;-62
2021/03/16 05:51:19;;;;;;;12.90;5.07;;;4.20;99.90;;;;;;5092941;28;20185;-63
2021/03/16 05:53:48;;;;;;;7.93;5.27;;;4.30;99.90;;;;;;5092780;28;20277;-62
2021/03/16 05:56:15;;;;;;;10.07;5.30;;;4.30;99.90;;;;;;5092688;28;20257;-62
2021/03/16 05:58:42;;;;;;;7.63;4.73;;;4.30;99.90;;;;;;5092368;28;20295;-63
2021/03/16 06:01:10;;;;;;;7.40;4.73;;;4.30;99.90;;;;;;5092209;28;20291;-63
2021/03/16 06:03:37;;;;;;;14.40;5.23;;;4.30;99.90;;;;;;5092694;28;20300;-62
2021/03/16 06:06:05;;;;;;;9.97;5.20;;;4.40;99.90;;;;;;5092662;28;20251;-62
2021/03/16 06:08:32;;;;;;;11.17;5.23;;;4.30;99.90;;;;;;5092506;28;20239;-63
2021/03/16 06:11:00;;;;;;;14.80;5.30;;;4.30;99.90;;;;;;5092395;28;20206;-61
2021/03/16 06:13:27;;;;;;;9.50;6.37;;;4.30;99.90;;;;;;5092102;28;20735;-62
2021/03/16 06:15:53;;;;;;;7.90;5.00;;;4.30;99.90;;;;;;5092270;28;20273;-62
2021/03/16 06:18:26;;;;;;;13.00;5.63;;;4.30;99.90;;;;;;5092336;28;20213;-62
2021/03/16 06:21:00;;;;;;;10.17;4.73;;;4.30;99.90;;;;;;5092711;28;20203;-62
2021/03/16 06:23:31;;;;;;;7.97;5.03;;;4.40;99.90;;;;;;5095227;28;20205;-63
2021/03/16 06:25:59;;;;;;;8.03;5.10;;;4.40;99.90;;;;;;5102030;28;20290;-63
2021/03/16 06:28:32;;;;;;;8.87;5.00;;;4.50;99.90;;;;;;5103230;28;20289;-63
2021/03/16 06:30:59;;;;;;;10.53;5.03;;;4.50;99.90;;;;;;5093662;28;20202;-62
2021/03/16 06:33:30;;;;;;;8.53;5.40;;;4.60;99.90;;;;;;5092717;28;20229;-62
2021/03/16 06:35:58;;;;;;;7.77;5.10;;;4.60;99.90;;;;;;5092427;28;20249;-62
2021/03/16 06:38:26;;;;;;;12.30;5.60;;;4.60;99.90;;;;;;5092458;28;20208;-64
2021/03/16 06:40:54;;;;;;;8.70;5.23;;;4.50;99.90;;;;;;5092109;28;20670;-63
2021/03/16 06:43:24;;;;;;;10.10;5.80;;;4.50;99.90;;;;;;5092366;28;20240;-63
2021/03/16 06:45:52;;;;;;;9.40;5.27;;;4.50;99.90;;;;;;5092005;28;20221;-63
2021/03/16 06:48:21;;;;;;;8.87;5.27;;;4.50;99.90;;;;;;5085306;28;20197;-62
2021/03/16 06:50:50;;;;;;;10.23;5.83;;;4.60;99.90;;;;;;5083048;28;20210;-63
2021/03/16 06:53:27;;;;;;;7.83;4.60;;;4.70;99.90;;;;;;5092060;28;20229;-62
2021/03/16 06:56:06;;;;;;;6.80;4.40;;;4.80;99.90;;;;;;5081987;28;20229;-61
2021/03/16 06:58:36;;;;;;;10.23;4.30;;;5.00;99.90;;;;;;5078139;28;20675;-62
2021/03/16 07:01:08;;;;;;;8.30;4.50;;;5.00;99.90;;;;;;5092334;28;20202;-62
2021/03/16 07:03:37;;;;;;;10.20;4.53;;;5.10;99.90;;;;;;5085983;28;20191;-62
2021/03/16 07:06:12;;;;;;;10.47;4.83;;;5.20;99.90;;;;;;5080626;28;20201;-62
2021/03/16 07:08:40;;;;;;;6.37;4.10;;;5.10;99.90;;;;;;5079007;28;20233;-62
2021/03/16 07:11:10;;;;;;;8.57;4.40;;;5.00;99.90;;;;;;5083681;28;20643;-61
2021/03/16 07:13:38;;;;;;;7.37;4.30;;;5.00;99.90;;;;;;5075521;28;20247;-61
2021/03/16 07:16:07;;;;;;;7.80;4.83;;;4.90;99.90;;;;;;5075025;28;20296;-61
2021/03/16 07:18:38;;;;;;;8.90;4.50;;;4.80;99.90;;;;;;5075165;28;20288;-62
2021/03/16 07:21:06;;;;;;;7.47;4.37;;;4.80;99.90;;;;;;5085701;28;20233;-62
2021/03/16 07:23:39;;;;;;;8.13;4.53;;;4.90;99.90;;;;;;5095087;28;20202;-62
2021/03/16 07:26:06;;;;;;;6.67;4.40;;;5.00;99.90;;;;;;5095334;28;20217;-62
2021/03/16 07:28:34;;;;;;;10.27;4.80;;;4.90;99.90;;;;;;5095127;28;20251;-62
2021/03/16 07:31:02;;;;;;;7.17;4.80;;;5.10;99.90;;;;;;5095220;28;20263;-64
2021/03/16 07:33:33;;;;;;;7.07;5.07;;;5.20;99.90;;;;;;5093216;28;20248;-62
2021/03/16 07:36:00;;;;;;;7.90;4.73;;;5.20;99.90;;;;;;5092197;28;20248;-63
2021/03/16 07:38:29;;;;;;;8.63;4.70;;;5.30;99.90;;;;;;5083495;28;20243;-62
2021/03/16 07:40:56;;;;;;;7.73;4.90;;;5.20;99.90;;;;;;5074777;28;20254;-63
2021/03/16 07:43:32;;;;;;;9.80;4.93;;;5.20;99.90;;;;;;5074181;28;20224;-63
2021/03/16 07:46:09;;;;;;;7.30;4.50;;;5.10;99.90;;;;;;5073960;28;20193;-62
2021/03/16 07:48:42;;;;;;;8.70;5.20;;;5.00;99.90;;;;;;5077214;28;20256;-62
2021/03/16 07:51:11;;;;;;;7.87;4.37;;;5.10;99.90;;;;;;5088090;28;20532;-62
2021/03/16 07:53:40;;;;;;;10.50;4.80;;;5.20;99.90;;;;;;5073510;28;20256;-61
2021/03/16 07:56:08;;;;;;;9.30;4.23;;;5.20;99.90;;;;;;5073547;28;20221;-62
2021/03/16 07:58:44;;;;;;;9.97;4.80;;;5.10;99.90;;;;;;5073191;28;20257;-62
2021/03/16 08:01:12;;;;;;;6.37;4.47;;;5.20;99.90;;;;;;5078918;28;20695;-64
2021/03/16 08:03:41;;;;;;;8.63;5.30;;;5.40;99.90;;;;;;5090246;28;20206;-64
2021/03/16 08:06:19;;;;;;;8.47;5.40;;;5.60;99.90;;;;;;5091205;28;20205;-65
2021/03/16 08:08:47;;;;;;;7.00;4.63;;;5.60;99.90;;;;;;5081039;28;20228;-62
2021/03/16 08:11:14;;;;;;;12.10;5.50;;;5.70;99.90;;;;;;5091264;28;20211;-66
2021/03/16 08:13:40;;;;;;;7.17;4.83;;;5.80;99.90;;;;;;5091367;28;20293;-65
2021/03/16 08:16:12;;;;;;;7.57;4.90;;;5.80;99.90;;;;;;5091165;28;20699;-66
2021/03/16 08:18:40;;;;;;;6.63;5.00;;;5.90;99.90;;;;;;5091002;28;20214;-65
2021/03/16 08:21:09;;;;;;;7.20;4.73;;;5.90;99.90;;;;;;5090036;28;20280;-64
2021/03/16 08:23:36;;;;;;;9.47;5.13;;;5.90;99.90;;;;;;5082404;28;20243;-65
2021/03/16 08:26:03;;;;;;;6.77;4.63;;;6.00;99.90;;;;;;5075271;28;20605;-66
2021/03/16 08:28:31;;;;;;;6.80;5.07;;;6.00;99.90;;;;;;5083086;28;20203;-66
2021/03/16 08:31:01;;;;;;;7.30;5.30;;;6.10;99.90;;;;;;5091015;28;20194;-64
2021/03/16 08:33:30;;;;;;;11.53;5.20;;;6.10;99.90;;;;;;5090405;28;20665;-65
2021/03/16 08:35:58;;;;;;;8.00;4.83;;;6.10;99.90;;;;;;5090408;28;20292;-66
2021/03/16 08:38:27;;;;;;;12.30;6.33;;;6.10;99.90;;;;;;5090510;28;20207;-66
2021/03/16 08:41:04;;;;;;;9.13;6.47;;;6.20;99.90;;;;;;5089727;28;20298;-65
2021/03/16 08:43:32;;;;;;;11.03;7.20;;;6.20;99.90;;;;;;5090136;28;20219;-64
2021/03/16 08:45:59;;;;;;;12.30;7.30;;;6.30;99.90;;;;;;5090236;28;20203;-66
2021/03/16 08:48:28;;;;;;;12.73;8.40;;;6.50;99.90;;;;;;5090128;28;20199;-65
2021/03/16 08:50:56;;;;;;;13.17;8.47;;;6.60;99.90;;;;;;5090167;28;20218;-67
2021/03/16 08:53:23;;;;;;;9.07;7.63;;;6.80;99.90;;;;;;5089523;28;20272;-66
2021/03/16 08:55:51;;;;;;;11.27;7.67;;;6.90;99.90;;;;;;5090085;28;20319;-62
2021/03/16 08:58:20;;;;;;;9.43;7.80;;;6.80;99.90;;;;;;5089986;28;20208;-63
2021/03/16 09:00:48;;;;;;;13.70;7.60;;;6.90;99.90;;;;;;5068719;28;20247;-68
2021/03/16 09:03:15;;;;;;;10.67;7.53;;;7.20;99.90;;;;;;5069670;28;20204;-66
2021/03/16 09:05:42;;;;;;;12.93;7.53;;;7.30;99.90;;;;;;5069836;28;20207;-67
2021/03/16 09:08:10;;;;;;;9.67;7.77;;;7.30;99.90;;;;;;5069785;28;20212;-66
2021/03/16 09:10:37;;;;;;;12.67;7.40;;;7.30;99.90;;;;;;5069282;28;20227;-62
2021/03/16 09:13:04;;;;;;;9.20;7.17;;;7.50;99.90;;;;;;5069625;28;20250;-63
2021/03/16 09:15:34;;;;;;;11.77;6.73;;;7.70;99.90;;;;;;5069638;28;20221;-63
2021/03/16 09:18:04;;;;;;;9.37;7.93;;;7.70;99.90;;;;;;5069346;28;20205;-65
2021/03/16 09:20:34;;;;;;;7.53;6.73;;;7.80;99.90;;;;;;5075178;28;20203;-65
2021/03/16 09:23:04;;;;;;;11.67;7.90;;;7.80;99.90;;;;;;5089423;28;20629;-65
2021/03/16 09:25:33;;;;;;;10.27;7.43;;;7.60;99.90;;;;;;5089674;28;20290;-65
2021/03/16 09:28:02;;;;;;;10.20;7.13;;;7.40;99.90;;;;;;5089678;28;20298;-65
2021/03/16 09:30:30;;;;;;;11.33;7.27;;;7.20;99.90;;;;;;5089493;28;20211;-65
2021/03/16 09:32:58;;;;;;;13.03;7.77;;;7.10;99.90;;;;;;5082850;28;20694;-60
2021/03/16 09:35:25;;;;;;;11.87;7.63;;;7.10;99.90;;;;;;5089051;28;20262;-61
2021/03/16 09:37:53;;;;;;;12.13;8.13;;;7.10;99.90;;;;;;5089527;28;20295;-61
2021/03/16 09:40:30;;;;;;;11.17;7.83;;;7.00;99.90;;;;;;5089807;28;20252;-60
2021/03/16 09:42:58;;;;;;;13.70;8.20;;;7.00;99.90;;;;;;5089003;28;20683;-60
2021/03/16 09:45:28;;;;;;;13.37;8.33;;;7.10;99.90;;;;;;5089483;28;20663;-60
2021/03/16 09:47:56;;;;;;;14.20;8.50;;;7.10;99.90;;;;;;5089357;28;20203;-59
2021/03/16 09:50:29;;;;;;;11.17;7.50;;;7.00;99.90;;;;;;5087398;28;20662;-64
2021/03/16 09:53:01;;;;;;;10.90;8.00;;;7.00;99.90;;;;;;5089331;28;20296;-67
2021/03/16 09:55:29;;;;;;;10.13;7.60;;;7.10;99.90;;;;;;5084499;28;20281;-63
2021/03/16 09:57:57;;;;;;;13.90;8.07;;;7.00;99.90;;;;;;5081111;28;20207;-63
2021/03/16 10:00:26;;;;;;;12.53;7.67;;;7.10;99.90;;;;;;5080504;28;20747;-63
2021/03/16 10:03:02;;;;;;;14.43;9.20;;;7.20;99.90;;;;;;5088673;28;20452;-65
2021/03/16 10:05:30;;;;;;;10.00;8.10;;;7.30;99.90;;;;;;5089362;28;20264;-65
2021/03/16 10:07:56;;;;;;;9.90;6.80;;;7.20;99.90;;;;;;5089019;28;20235;-65
2021/03/16 10:10:25;;;;;;;12.20;7.13;;;7.20;99.90;;;;;;5088993;28;20676;-65
2021/03/16 10:12:59;;;;;;;8.93;6.60;;;7.30;99.90;;;;;;5088487;28;20215;-66
2021/03/16 10:15:28;;;;;;;8.20;6.50;;;7.30;99.90;;;;;;5089133;28;20625;-66
2021/03/16 10:17:57;;;;;;;10.33;6.70;;;7.40;99.90;;;;;;5088562;28;20325;-65
2021/03/16 10:20:29;;;;;;;9.20;6.20;;;7.40;99.90;;;;;;5088315;28;20200;-66
2021/03/16 10:22:59;;;;;;;8.87;5.87;;;7.40;99.90;;;;;;5089024;28;20279;-68
2021/03/16 10:25:29;;;;;;;8.27;6.23;;;7.20;99.90;;;;;;5088590;28;20231;-65
2021/03/16 10:27:59;;;;;;;9.03;5.23;;;7.40;99.90;;;;;;5089028;28;20323;-66
2021/03/16 10:30:32;;;;;;;7.00;4.97;;;7.60;99.90;;;;;;5089205;28;20195;-67
2021/03/16 10:33:05;;;;;;;5.63;4.97;;;7.50;99.90;;;;;;5089526;28;20508;-69
2021/03/16 10:35:33;;;;;;;10.13;6.10;;;7.70;99.90;;;;;;5089628;28;20444;-65
2021/03/16 10:38:02;;;;;;;9.47;5.87;;;7.90;99.90;;;;;;5093475;28;20195;-65
2021/03/16 10:40:29;;;;;;;9.17;5.57;;;8.00;99.90;;;;;;5098129;28;20200;-63
2021/03/16 10:42:57;;;;;;;8.60;5.87;;;7.80;99.90;;;;;;5093039;28;20236;-68
2021/03/16 10:45:25;;;;;;;7.67;5.60;;;7.90;99.90;;;;;;5076392;28;20280;-67
2021/03/16 10:47:53;;;;;;;9.13;4.93;;;8.00;99.90;;;;;;5072752;28;20675;-66
2021/03/16 10:50:20;;;;;;;11.43;5.70;;;8.00;99.90;;;;;;5072714;28;20269;-65
2021/03/16 10:52:47;;;;;;;8.00;4.43;;;7.90;99.90;;;;;;5081768;28;20307;-61
2021/03/16 10:55:14;;;;;;;8.60;5.03;;;7.60;99.90;;;;;;5092343;28;20211;-61
2021/03/16 10:57:41;;;;;;;7.07;4.77;;;7.80;99.90;;;;;;5092320;28;20253;-57
2021/03/16 11:00:10;;;;;;;7.13;5.20;;;8.00;99.90;;;;;;5092146;28;20691;-57
2021/03/16 11:02:38;;;;;;;6.53;4.67;;;8.00;99.90;;;;;;5092438;28;20686;-56
2021/03/16 11:05:07;;;;;;;6.17;5.07;;;8.00;99.90;;;;;;5092761;28;20234;-61
2021/03/16 11:07:34;;;;;;;8.80;4.83;;;8.00;99.90;;;;;;5092321;28;20223;-59
2021/03/16 11:10:03;;;;;;;9.17;5.50;;;8.00;99.90;;;;;;5092244;28;20199;-57
2021/03/16 11:12:30;;;;;;;10.40;5.27;;;7.80;99.90;;;;;;5092167;28;20675;-58
2021/03/16 11:14:57;;;;;;;8.17;5.13;;;7.60;99.90;;;;;;5092392;28;20286;-59
2021/03/16 11:17:24;;;;;;;6.90;5.30;;;7.80;99.90;;;;;;5092265;28;20204;-57
2021/03/16 11:19:52;;;;;;;7.47;5.20;;;7.90;99.90;;;;;;5091745;28;20204;-60
2021/03/16 11:22:19;;;;;;;9.70;5.60;;;8.00;99.90;;;;;;5091976;28;20817;-60
2021/03/16 11:24:47;;;;;;;8.50;6.00;;;8.00;99.90;;;;;;5091890;28;20210;-58
2021/03/16 11:27:15;;;;;;;10.03;6.47;;;8.10;99.90;;;;;;5091790;28;20252;-59
2021/03/16 11:29:42;;;;;;;8.63;6.00;;;8.40;99.90;;;;;;5091738;28;20228;-58
2021/03/16 11:32:09;;;;;;;8.03;6.40;;;8.60;99.90;;;;;;5082749;28;20238;-60
2021/03/16 11:34:37;;;;;;;8.37;5.60;;;8.70;99.90;;;;;;5080378;28;20205;-58
2021/03/16 11:37:04;;;;;;;10.80;6.03;;;8.70;99.90;;;;;;5071168;28;20817;-61
2021/03/16 11:39:31;;;;;;;9.30;6.03;;;8.70;99.90;;;;;;5071334;28;20212;-60
2021/03/16 11:41:58;;;;;;;10.53;6.20;;;8.60;99.90;;;;;;5071644;28;20205;-61
2021/03/16 11:44:25;;;;;;;9.47;6.07;;;8.50;99.90;;;;;;5077092;28;20326;-60
2021/03/16 11:46:52;;;;;;;11.10;6.10;;;8.20;99.90;;;;;;5076077;28;20200;-60
2021/03/16 11:49:19;;;;;;;6.20;4.50;;;8.20;99.90;;;;;;5071168;28;20224;-59
2021/03/16 11:51:47;;;;;;;9.40;4.20;;;8.20;99.90;;;;;;5070815;28;20240;-59
2021/03/16 11:54:14;;;;;;;9.03;4.47;;;8.20;99.90;;;;;;5031515;28;20252;-60
2021/03/16 11:56:40;;;;;;;7.37;4.37;;;8.30;99.90;;;;;;5033327;28;20265;-60
2021/03/16 11:59:08;;;;;;;7.17;4.73;;;8.20;99.90;;;;;;5051045;28;20201;-60
2021/03/16 12:01:35;;;;;;;7.47;4.87;;;8.40;99.90;;;;;;5049227;28;20241;-60
2021/03/16 12:04:13;;;;;;;8.77;5.87;;;8.50;99.90;;;;;;5039973;28;20205;-60
2021/03/16 12:06:40;;;;;;;11.53;6.10;;;8.50;99.90;;;;;;5031006;28;20689;-59
2021/03/16 12:09:08;;;;;;;7.87;5.70;;;8.40;99.90;;;;;;5031199;28;20304;-60
2021/03/16 12:11:36;;;;;;;10.47;5.87;;;8.30;99.90;;;;;;5031208;28;20284;-59
2021/03/16 12:14:03;;;;;;;9.43;5.63;;;8.40;99.90;;;;;;5030807;28;20264;-59
2021/03/16 12:16:30;;;;;;;7.67;5.67;;;8.50;99.90;;;;;;5030632;28;20689;-59
2021/03/16 12:18:57;;;;;;;10.93;6.30;;;8.60;99.90;;;;;;5049731;28;20205;-60
2021/03/16 12:21:24;;;;;;;11.37;5.90;;;8.60;99.90;;;;;;5039113;28;20293;-60
2021/03/16 12:23:51;;;;;;;8.43;5.93;;;8.50;99.90;;;;;;5039346;28;20233;-61
2021/03/16 12:26:19;;;;;;;7.87;5.73;;;8.40;99.90;;;;;;5030652;28;20363;-60
2021/03/16 12:28:47;;;;;;;10.13;5.90;;;8.30;99.90;;;;;;5030196;28;20226;-60
2021/03/16 12:31:14;;;;;;;8.67;5.90;;;8.30;99.90;;;;;;5030803;28;20268;-59
2021/03/16 12:33:43;;;;;;;8.67;5.87;;;8.30;99.90;;;;;;5030224;28;20696;-59
2021/03/16 12:36:11;;;;;;;7.10;5.20;;;8.40;99.90;;;;;;5030459;28;20222;-59
2021/03/16 12:38:38;;;;;;;11.47;6.13;;;8.60;99.90;;;;;;5030569;28;20632;-59
2021/03/16 12:41:05;;;;;;;9.67;5.43;;;8.90;99.90;;;;;;5030253;28;20260;-60
2021/03/16 12:43:32;;;;;;;11.97;6.30;;;9.00;99.90;;;;;;5030415;28;20286;-60
2021/03/16 12:45:59;;;;;;;9.50;5.80;;;9.10;99.90;;;;;;5030476;28;20661;-62
2021/03/16 12:48:26;;;;;;;10.53;5.33;;;9.20;99.90;;;;;;5030408;28;20198;-59
2021/03/16 12:50:54;;;;;;;10.43;5.37;;;9.20;99.90;;;;;;5030133;28;20292;-60
2021/03/16 12:53:21;;;;;;;12.63;5.10;;;9.10;99.90;;;;;;5055632;28;20696;-59
2021/03/16 12:55:48;;;;;;;11.17;5.33;;;8.90;99.90;;;;;;5069458;28;20227;-60
2021/03/16 12:58:14;;;;;;;9.73;4.83;;;8.70;99.90;;;;;;5084757;28;20232;-59
2021/03/16 13:00:42;;;;;;;7.87;5.00;;;8.80;99.90;;;;;;5089984;28;20203;-59